createdAt,value
2019-05-10T12:07:35.048Z,1005.60
2019-05-10T12:08:27.945Z,1005.47
2019-05-10T12:09:26.889Z,1005.36
2019-05-10T12:10:26.886Z,1005.44
2019-05-10T12:11:33.247Z,1005.59
2019-05-10T12:12:44.852Z,1005.50
2019-05-10T12:13:27.844Z,1005.35
2019-05-10T12:14:26.834Z,1005.39
2019-05-10T12:15:26.832Z,1005.36
2019-05-10T12:16:26.810Z,1005.41
2019-05-10T12:17:26.800Z,1005.49
2019-05-10T12:18:27.253Z,1005.38
2019-05-10T12:19:36.879Z,1005.34
2019-05-10T12:20:44.820Z,1005.36
2019-05-10T12:21:27.774Z,1005.42
2019-05-10T12:23:31.090Z,1005.55
2019-05-10T12:24:46.235Z,1005.59
2019-05-10T12:25:42.699Z,1005.43
2019-05-10T12:26:05.557Z,1005.63
2019-05-10T12:27:41.807Z,1005.38
2019-05-10T12:28:29.982Z,1005.41
2019-05-10T12:29:27.669Z,1005.71
2019-05-10T12:30:29.542Z,1005.47
2019-05-10T12:31:27.651Z,1005.43
2019-05-10T12:32:26.956Z,1005.50
2019-05-10T12:33:27.890Z,1005.67
2019-05-10T12:34:26.616Z,1005.65
2019-05-10T12:35:35.530Z,1005.58
2019-05-10T12:36:27.830Z,1005.50
2019-05-10T12:37:26.585Z,1005.43
2019-05-10T12:38:29.827Z,1005.48
2019-05-10T12:39:27.562Z,1005.47
2019-05-10T12:40:26.560Z,1005.50
2019-05-10T12:41:26.553Z,1005.46
2019-05-10T12:42:26.528Z,1005.28
2019-05-10T12:43:26.521Z,1005.46
2019-05-10T12:44:26.507Z,1005.38
2019-05-10T12:45:26.507Z,1005.32
2019-05-10T12:46:26.486Z,1005.32
2019-05-10T12:47:26.475Z,1005.41
2019-05-10T12:48:26.464Z,1005.40
2019-05-10T12:49:26.452Z,1005.30
2019-05-10T12:50:26.452Z,1005.23
2019-05-10T12:51:26.432Z,1005.23
2019-05-10T12:52:28.580Z,1005.29
2019-05-10T12:53:26.410Z,1005.33
2019-05-10T12:54:26.401Z,1005.33
2019-05-10T12:55:26.397Z,1005.32
2019-05-10T12:56:26.381Z,1005.23
2019-05-10T12:57:26.365Z,1005.31
2019-05-10T12:58:26.355Z,1005.32
2019-05-10T12:59:29.643Z,1005.28
2019-05-10T13:00:27.340Z,1005.29
2019-05-10T13:01:31.750Z,1005.25
2019-05-10T13:02:27.309Z,1005.22
2019-05-10T13:03:31.587Z,1005.17
2019-05-10T13:04:39.655Z,1005.17
2019-05-10T13:05:32.076Z,1005.21
2019-05-10T13:06:27.275Z,1005.28
2019-05-10T13:07:26.264Z,1005.28
2019-05-10T13:08:26.246Z,1005.27
2019-05-10T13:09:38.202Z,1005.30
2019-05-10T13:10:27.347Z,1005.36
2019-05-10T13:11:27.123Z,1005.32
2019-05-10T13:12:26.201Z,1005.34
2019-05-10T13:13:29.810Z,1005.31
2019-05-10T13:14:29.102Z,1005.35
2019-05-10T13:15:31.087Z,1005.31
2019-05-10T13:16:27.156Z,1005.38
2019-05-10T13:17:26.146Z,1005.39
2019-05-10T13:18:48.235Z,1005.34
2019-05-10T13:19:27.123Z,1005.34
2019-05-10T13:20:30.864Z,1005.39
2019-05-10T13:21:30.130Z,1005.30
2019-05-10T13:22:26.108Z,1005.32
2019-05-10T13:23:26.079Z,1005.33
2019-05-10T13:24:26.069Z,1005.36
2019-05-10T13:25:26.067Z,1005.38
2019-05-10T13:26:26.047Z,1005.32
2019-05-10T13:27:26.036Z,1005.36
2019-05-10T13:28:26.041Z,1005.39
2019-05-10T13:29:26.016Z,1005.42
2019-05-10T13:30:28.169Z,1005.45
2019-05-10T13:31:25.992Z,1005.41
2019-05-10T13:32:25.981Z,1005.39
2019-05-10T13:33:28.825Z,1005.44
2019-05-10T13:34:25.962Z,1005.38
2019-05-10T13:35:25.949Z,1005.41
2019-05-10T13:36:30.678Z,1005.35
2019-05-10T13:37:26.927Z,1005.42
2019-05-10T13:38:25.922Z,1005.41
2019-05-10T13:39:27.605Z,1005.34
2019-05-10T13:40:25.894Z,1005.29
2019-05-10T13:41:26.509Z,1005.31
2019-05-10T13:42:25.871Z,1005.34
2019-05-10T13:43:28.144Z,1005.37
2019-05-10T13:44:25.848Z,1005.38
2019-05-10T13:45:25.838Z,1005.36
2019-05-10T13:46:25.837Z,1005.49
2019-05-10T13:47:25.818Z,1005.39
2019-05-10T13:48:26.797Z,1005.45
2019-05-10T13:49:25.793Z,1005.42
2019-05-10T13:50:25.789Z,1005.48
2019-05-10T13:51:25.782Z,1005.44
2019-05-10T13:52:29.978Z,1005.32
2019-05-10T13:53:26.755Z,1005.46
2019-05-10T13:54:31.328Z,1005.59
2019-05-10T13:55:26.730Z,1005.43
2019-05-10T13:56:25.730Z,1005.63
2019-05-10T13:57:25.705Z,1005.35
2019-05-10T13:58:25.697Z,1005.27
2019-05-10T13:59:25.699Z,1005.34
2019-05-10T14:00:33.115Z,1005.73
2019-05-10T14:01:26.675Z,1005.72
2019-05-10T14:02:33.055Z,1005.82
2019-05-10T14:03:26.641Z,1005.50
2019-05-10T14:04:25.632Z,1005.46
2019-05-10T14:05:25.620Z,1005.59
2019-05-10T14:06:25.636Z,1005.71
2019-05-10T14:07:25.599Z,1005.67
2019-05-10T14:08:25.587Z,1005.66
2019-05-10T14:09:25.590Z,1005.51
2019-05-10T14:10:25.576Z,1005.33
2019-05-10T14:11:25.565Z,1005.60
2019-05-10T14:12:25.739Z,1005.53
2019-05-10T14:13:25.535Z,1005.46
2019-05-10T14:14:26.733Z,1005.42
2019-05-10T14:15:25.512Z,1005.53
2019-05-10T14:16:25.517Z,1005.46
2019-05-10T14:17:25.513Z,1005.52
2019-05-10T14:18:25.480Z,1005.41
2019-05-10T14:19:26.176Z,1005.48
2019-05-10T14:20:27.573Z,1005.51
2019-05-10T14:21:25.450Z,1005.28
2019-05-10T14:22:25.445Z,1005.27
2019-05-10T14:23:29.012Z,1005.23
2019-05-10T14:24:26.418Z,1005.24
2019-05-10T14:25:29.727Z,1005.23
2019-05-10T14:26:26.394Z,1005.22
2019-05-10T14:27:29.941Z,1005.27
2019-05-10T14:28:26.370Z,1005.35
2019-05-10T14:29:33.309Z,1005.37
2019-05-10T14:30:26.348Z,1005.35
2019-05-10T14:31:25.340Z,1005.40
2019-05-10T14:32:25.338Z,1005.40
2019-05-10T14:33:25.318Z,1005.45
2019-05-10T14:34:25.305Z,1005.46
2019-05-10T14:35:25.304Z,1005.43
2019-05-10T14:36:25.284Z,1005.61
2019-05-10T14:37:25.281Z,1005.57
2019-05-10T14:38:25.262Z,1005.51
2019-05-10T14:39:25.253Z,1005.54
2019-05-10T14:40:30.649Z,1005.51
2019-05-10T14:41:26.227Z,1005.41
2019-05-10T14:42:30.915Z,1005.42
2019-05-10T14:43:26.210Z,1005.43
2019-05-10T14:44:25.202Z,1005.45
2019-05-10T14:45:25.185Z,1005.48
2019-05-10T14:46:25.175Z,1005.45
2019-05-10T14:47:25.173Z,1005.33
2019-05-10T14:48:28.666Z,1005.42
2019-05-10T14:49:26.141Z,1005.41
2019-05-10T14:50:28.060Z,1005.42
2019-05-10T14:51:40.401Z,1005.37
2019-05-10T14:52:26.116Z,1005.34
2019-05-10T14:53:27.076Z,1005.42
2019-05-10T14:54:25.087Z,1005.42
2019-05-10T14:55:28.197Z,1005.36
2019-05-10T14:56:26.067Z,1005.46
2019-05-10T14:57:25.069Z,1005.37
2019-05-10T14:58:25.045Z,1005.39
2019-05-10T14:59:25.070Z,1005.33
2019-05-10T15:00:25.022Z,1005.40
2019-05-10T15:01:25.012Z,1005.50
2019-05-10T15:02:25.171Z,1005.33
2019-05-10T15:03:25.001Z,1005.27
2019-05-10T15:05:25.967Z,1005.32
2019-05-10T15:06:24.958Z,1005.40
2019-05-10T15:07:24.945Z,1005.35
2019-05-10T15:08:24.942Z,1005.38
2019-05-10T15:09:24.925Z,1005.44
2019-05-10T15:10:24.914Z,1005.48
2019-05-10T15:11:26.587Z,1005.40
2019-05-10T15:12:25.888Z,1005.39
2019-05-10T15:13:26.111Z,1005.42
2019-05-10T15:14:24.869Z,1005.50
2019-05-10T15:15:24.859Z,1005.53
2019-05-10T15:16:27.224Z,1005.52
2019-05-10T15:17:29.824Z,1005.44
2019-05-10T15:18:24.835Z,1005.50
2019-05-10T15:19:27.298Z,1005.49
2019-05-10T15:20:25.801Z,1005.49
2019-05-10T15:21:24.790Z,1005.40
2019-05-10T15:22:24.985Z,1005.38
2019-05-10T15:23:24.778Z,1005.35
2019-05-10T15:24:24.757Z,1005.38
2019-05-10T15:25:24.748Z,1005.32
2019-05-10T15:26:24.737Z,1005.32
2019-05-10T15:27:24.726Z,1005.28
2019-05-10T15:28:24.726Z,1005.29
2019-05-10T15:29:24.922Z,1005.42
2019-05-10T15:30:24.694Z,1005.45
2019-05-10T15:31:29.269Z,1005.36
2019-05-10T15:32:25.669Z,1005.42
2019-05-10T15:33:24.657Z,1005.31
2019-05-10T15:34:24.653Z,1005.30
2019-05-10T15:35:24.634Z,1005.29
2019-05-10T15:36:29.846Z,1005.35
2019-05-10T15:37:25.613Z,1005.40
2019-05-10T15:38:24.607Z,1005.34
2019-05-10T15:39:28.627Z,1005.34
2019-05-10T15:40:25.581Z,1005.34
2019-05-10T15:41:24.580Z,1005.36
2019-05-10T15:42:24.558Z,1005.31
2019-05-10T15:43:24.551Z,1005.38
2019-05-10T15:44:30.605Z,1005.30
2019-05-10T15:45:25.525Z,1005.26
2019-05-10T15:46:36.264Z,1005.25
2019-05-10T15:47:25.501Z,1005.28
2019-05-10T15:48:24.502Z,1005.24
2019-05-10T15:49:24.658Z,1005.28
2019-05-10T15:50:24.470Z,1005.32
2019-05-10T15:51:35.742Z,1005.26
2019-05-10T15:52:25.447Z,1005.30
2019-05-10T15:53:25.718Z,1005.34
2019-05-10T15:54:24.443Z,1005.31
2019-05-10T15:55:27.406Z,1005.35
2019-05-10T15:56:24.411Z,1005.32
2019-05-10T15:57:24.409Z,1005.36
2019-05-10T15:58:24.390Z,1005.32
2019-05-10T15:59:24.417Z,1005.27
2019-05-10T16:00:25.490Z,1005.21
2019-05-10T16:01:27.180Z,1005.19
2019-05-10T16:02:24.339Z,1005.31
2019-05-10T16:03:24.324Z,1005.29
2019-05-10T16:04:24.322Z,1005.30
2019-05-10T16:05:42.076Z,1005.36
2019-05-10T16:06:25.291Z,1005.34
2019-05-10T16:07:24.281Z,1005.33
2019-05-10T16:08:30.379Z,1005.36
2019-05-10T16:09:25.269Z,1005.34
2019-05-10T16:10:28.297Z,1005.31
2019-05-10T16:11:25.238Z,1005.30
2019-05-10T16:12:24.225Z,1005.34
2019-05-10T16:13:25.171Z,1005.38
2019-05-10T16:14:24.218Z,1005.35
2019-05-10T16:15:24.191Z,1005.35
2019-05-10T16:16:24.181Z,1005.34
2019-05-10T16:17:24.240Z,1005.35
2019-05-10T16:18:24.168Z,1005.34
2019-05-10T16:19:24.146Z,1005.34
2019-05-10T16:20:24.145Z,1005.47
2019-05-10T16:21:24.122Z,1005.42
2019-05-10T16:22:25.363Z,1005.42
2019-05-10T16:23:25.098Z,1005.37
2019-05-10T16:24:26.236Z,1005.33
2019-05-10T16:25:24.086Z,1005.26
2019-05-10T16:26:24.583Z,1005.31
2019-05-10T16:27:24.058Z,1005.26
2019-05-10T16:28:24.042Z,1005.31
2019-05-10T16:29:24.030Z,1005.32
2019-05-10T16:30:24.028Z,1005.30
2019-05-10T16:31:24.030Z,1005.31
2019-05-10T16:32:29.444Z,1005.33
2019-05-10T16:33:24.985Z,1005.30
2019-05-10T16:34:26.451Z,1005.26
2019-05-10T16:35:38.071Z,1005.30
2019-05-10T16:36:28.413Z,1005.28
2019-05-10T16:37:23.943Z,1005.29
2019-05-10T16:38:23.954Z,1005.30
2019-05-10T16:39:23.937Z,1005.27
2019-05-10T16:40:23.918Z,1005.24
2019-05-10T16:41:26.770Z,1005.29
2019-05-10T16:42:27.757Z,1005.27
2019-05-10T16:43:24.982Z,1005.26
2019-05-10T16:44:23.867Z,1005.27
2019-05-10T16:45:23.864Z,1005.28
2019-05-10T16:46:23.844Z,1005.31
2019-05-10T16:47:23.833Z,1005.31
2019-05-10T16:48:23.831Z,1005.26
2019-05-10T16:49:23.809Z,1005.25
2019-05-10T16:50:26.180Z,1005.34
2019-05-10T16:51:24.788Z,1005.30
2019-05-10T16:52:25.843Z,1005.32
2019-05-10T16:53:23.766Z,1005.40
2019-05-10T16:54:25.421Z,1005.39
2019-05-10T16:55:23.755Z,1005.45
2019-05-10T16:56:23.733Z,1005.44
2019-05-10T16:57:23.723Z,1005.44
2019-05-10T16:58:23.714Z,1005.48
2019-05-10T16:59:24.398Z,1005.50
2019-05-10T17:00:24.697Z,1005.54
2019-05-10T17:01:25.812Z,1005.47
2019-05-10T17:02:23.668Z,1005.51
2019-05-10T17:03:23.658Z,1005.54
2019-05-10T17:04:23.647Z,1005.51
2019-05-10T17:05:23.649Z,1005.60
2019-05-10T17:06:23.623Z,1005.61
2019-05-10T17:07:23.612Z,1005.63
2019-05-10T17:08:23.603Z,1005.64
2019-05-10T17:09:23.592Z,1005.62
2019-05-10T17:10:26.979Z,1005.57
2019-05-10T17:11:24.576Z,1005.52
2019-05-10T17:12:27.724Z,1005.54
2019-05-10T17:13:24.549Z,1005.49
2019-05-10T17:14:23.537Z,1005.45
2019-05-10T17:15:23.526Z,1005.36
2019-05-10T17:16:23.524Z,1005.35
2019-05-10T17:17:23.504Z,1005.32
2019-05-10T17:18:24.227Z,1005.37
2019-05-10T17:19:27.976Z,1005.37
2019-05-10T17:20:24.471Z,1005.32
2019-05-10T17:21:23.470Z,1005.39
2019-05-10T17:22:23.452Z,1005.35
2019-05-10T17:23:23.441Z,1005.29
2019-05-10T17:24:23.798Z,1005.30
2019-05-10T17:25:23.414Z,1005.29
2019-05-10T17:26:23.414Z,1005.24
2019-05-10T17:27:23.394Z,1005.28
2019-05-10T17:28:23.382Z,1005.25
2019-05-10T17:29:23.372Z,1005.27
2019-05-10T17:30:27.762Z,1005.34
2019-05-10T17:31:24.359Z,1005.29
2019-05-10T17:32:24.848Z,1005.23
2019-05-10T17:33:23.347Z,1005.27
2019-05-10T17:34:29.039Z,1005.25
2019-05-10T17:35:24.303Z,1005.28
2019-05-10T17:36:23.306Z,1005.33
2019-05-10T17:37:23.280Z,1005.41
2019-05-10T17:38:23.271Z,1005.37
2019-05-10T17:39:26.172Z,1005.45
2019-05-10T17:40:24.247Z,1005.52
2019-05-10T17:41:24.929Z,1005.47
2019-05-10T17:42:23.224Z,1005.56
2019-05-10T17:43:23.214Z,1005.50
2019-05-10T17:44:24.798Z,1005.55
2019-05-10T17:45:23.191Z,1005.51
2019-05-10T17:46:23.189Z,1005.48
2019-05-10T17:47:27.094Z,1005.51
2019-05-10T17:48:24.164Z,1005.52
2019-05-10T17:49:23.148Z,1005.55
2019-05-10T17:50:23.136Z,1005.54
2019-05-10T17:51:23.136Z,1005.53
2019-05-10T17:52:23.122Z,1005.59
2019-05-10T17:53:23.100Z,1005.67
2019-05-10T17:54:23.091Z,1005.65
2019-05-10T17:55:25.414Z,1005.62
2019-05-10T17:56:23.076Z,1005.59
2019-05-10T17:57:23.058Z,1005.70
2019-05-10T17:58:27.750Z,1005.69
2019-05-10T17:59:24.033Z,1005.71
2019-05-10T18:00:23.023Z,1005.68
2019-05-10T18:01:23.024Z,1005.69
2019-05-10T18:02:23.000Z,1005.65
2019-05-10T18:03:22.991Z,1005.65
2019-05-10T18:04:22.978Z,1005.60
2019-05-10T18:05:22.965Z,1005.63
2019-05-10T18:06:24.507Z,1005.65
2019-05-10T18:07:22.943Z,1005.68
2019-05-10T18:08:22.934Z,1005.63
2019-05-10T18:09:22.922Z,1005.62
2019-05-10T18:10:22.912Z,1005.66
2019-05-10T18:11:22.898Z,1005.63
2019-05-10T18:12:26.771Z,1005.64
2019-05-10T18:13:22.880Z,1005.69
2019-05-10T18:14:22.866Z,1005.70
2019-05-10T18:15:27.569Z,1005.75
2019-05-10T18:16:23.842Z,1005.79
2019-05-10T18:17:25.868Z,1005.82
2019-05-10T18:18:22.821Z,1005.78
2019-05-10T18:19:24.830Z,1005.81
2019-05-10T18:20:22.804Z,1005.89
2019-05-10T18:21:24.274Z,1005.86
2019-05-10T18:22:22.786Z,1005.91
2019-05-10T18:23:23.044Z,1005.91
2019-05-10T18:24:22.757Z,1005.96
2019-05-10T18:25:22.743Z,1005.93
2019-05-10T18:26:22.736Z,1005.99
2019-05-10T18:27:22.732Z,1005.98
2019-05-10T18:28:22.709Z,1005.99
2019-05-10T18:29:22.698Z,1006.00
2019-05-10T18:30:22.695Z,1006.10
2019-05-10T18:31:22.686Z,1006.13
2019-05-10T18:32:22.678Z,1006.11
2019-05-10T18:33:22.672Z,1006.10
2019-05-10T18:34:26.412Z,1006.12
2019-05-10T18:35:23.631Z,1006.07
2019-05-10T18:36:26.719Z,1006.06
2019-05-10T18:37:23.621Z,1006.06
2019-05-10T18:38:22.599Z,1006.05
2019-05-10T18:39:22.589Z,1006.13
2019-05-10T18:40:25.141Z,1006.09
2019-05-10T18:41:23.567Z,1006.04
2019-05-10T18:42:25.302Z,1005.98
2019-05-10T18:43:23.541Z,1006.03
2019-05-10T18:44:22.533Z,1005.95
2019-05-10T18:45:23.391Z,1005.92
2019-05-10T18:46:24.705Z,1005.94
2019-05-10T18:47:22.509Z,1005.94
2019-05-10T18:48:22.491Z,1005.92
2019-05-10T18:49:22.480Z,1005.96
2019-05-10T18:50:22.467Z,1005.97
2019-05-10T18:51:24.215Z,1005.88
2019-05-10T18:52:22.470Z,1005.97
2019-05-10T18:53:22.433Z,1005.86
2019-05-10T18:54:22.422Z,1005.89
2019-05-10T18:55:22.426Z,1005.88
2019-05-10T18:56:25.182Z,1005.86
2019-05-10T18:57:23.423Z,1005.94
2019-05-10T18:58:28.792Z,1005.94
2019-05-10T18:59:23.366Z,1005.88
2019-05-10T19:00:23.351Z,1005.88
2019-05-10T19:01:22.355Z,1005.92
2019-05-10T19:02:22.346Z,1005.88
2019-05-10T19:03:22.320Z,1005.83
2019-05-10T19:04:22.307Z,1005.83
2019-05-10T19:05:25.187Z,1005.87
2019-05-10T19:06:23.297Z,1005.88
2019-05-10T19:07:22.288Z,1005.89
2019-05-10T19:08:22.269Z,1005.89
2019-05-10T19:09:22.255Z,1005.92
2019-05-10T19:10:22.241Z,1005.87
2019-05-10T19:11:22.252Z,1005.86
2019-05-10T19:12:23.386Z,1005.85
2019-05-10T19:13:22.667Z,1005.94
2019-05-10T19:14:23.941Z,1005.94
2019-05-10T19:15:23.189Z,1005.95
2019-05-10T19:16:26.115Z,1005.92
2019-05-10T19:17:23.178Z,1005.90
2019-05-10T19:18:23.221Z,1005.88
2019-05-10T19:19:22.140Z,1005.87
2019-05-10T19:20:22.137Z,1005.92
2019-05-10T19:21:24.962Z,1005.91
2019-05-10T19:22:23.118Z,1005.95
2019-05-10T19:23:22.104Z,1005.94
2019-05-10T19:24:24.376Z,1005.97
2019-05-10T19:25:23.074Z,1005.92
2019-05-10T19:26:23.766Z,1005.92
2019-05-10T19:27:25.029Z,1005.89
2019-05-10T19:28:26.768Z,1005.88
2019-05-10T19:29:23.027Z,1005.95
2019-05-10T19:30:22.473Z,1005.94
2019-05-10T19:31:22.024Z,1005.99
2019-05-10T19:32:21.997Z,1006.00
2019-05-10T19:33:21.994Z,1006.04
2019-05-10T19:34:21.973Z,1006.05
2019-05-10T19:35:21.969Z,1006.04
2019-05-10T19:36:21.959Z,1005.99
2019-05-10T19:37:30.134Z,1005.96
2019-05-10T19:38:22.939Z,1005.90
2019-05-10T19:39:21.917Z,1005.92
2019-05-10T19:40:21.905Z,1005.95
2019-05-10T19:41:25.623Z,1005.90
2019-05-10T19:42:22.887Z,1005.95
2019-05-10T19:43:23.811Z,1005.92
2019-05-10T19:44:21.860Z,1005.98
2019-05-10T19:45:21.854Z,1006.01
2019-05-10T19:46:21.837Z,1006.13
2019-05-10T19:47:21.826Z,1006.17
2019-05-10T19:48:21.828Z,1006.23
2019-05-10T19:49:21.807Z,1006.24
2019-05-10T19:50:24.342Z,1006.26
2019-05-10T19:51:23.019Z,1006.24
2019-05-10T19:52:26.239Z,1006.30
2019-05-10T19:53:22.768Z,1006.30
2019-05-10T19:54:21.754Z,1006.26
2019-05-10T19:55:21.899Z,1006.22
2019-05-10T19:56:21.728Z,1006.19
2019-05-10T19:57:21.719Z,1006.22
2019-05-10T19:58:26.431Z,1006.14
2019-05-10T19:59:22.731Z,1006.21
2019-05-10T20:00:21.683Z,1006.24
2019-05-10T20:01:21.693Z,1006.29
2019-05-10T20:02:21.670Z,1006.33
2019-05-10T20:06:48.055Z,1006.21
2019-05-10T20:07:48.037Z,1006.24
2019-05-10T20:08:48.039Z,1006.32
2019-05-10T20:09:48.017Z,1006.38
2019-05-10T20:10:48.005Z,1006.34
2019-05-10T20:11:47.994Z,1006.27
2019-05-10T20:12:47.980Z,1006.28
2019-05-10T20:13:47.979Z,1006.17
2019-05-10T20:14:47.959Z,1006.18
2019-05-10T20:15:47.949Z,1006.10
2019-05-10T20:16:52.614Z,1006.08
2019-05-10T20:17:48.928Z,1006.08
2019-05-10T20:18:47.919Z,1006.04
2019-05-10T20:19:47.904Z,1005.99
2019-05-10T20:20:47.892Z,1005.99
2019-05-10T20:21:47.895Z,1005.94
